Terminal Aerodrome Forecast
Issued by NWS Tampa Bay Area, FL

Home | Current Version | Previous Version | Text Only | Print | Product List | Glossary On
Versions: 1 2 3 4 5 6 7 8 9 10 11 12 13
284
FTUS42 KTBW 241720
TAFFMY
TAF
KFMY 241720Z 2418/2518 03007KT P6SM VCTS SCT030CB BKN070
     FM250100 VRB04KT P6SM SCT030 SCT150
     FM251700 29005KT P6SM SCT035 SCT250=

USA.gov is the U.S. government's official web portal to all federal, state and local government web resources and services.